Time;durP1;ratioP1;P1;durP2;ratioP2;P2;SDS_P1;SDS_P2;PMS_P1;PMS_P2;Temp;Humidity;BMP_temperature;BMP_pressure;BME280_temperature;BME280_humidity;BME280_pressure;Samples;Min_cycle;Max_cycle;Signal;HPM_P1;HPM_P2
2021/07/30 00:00:58;;;;;;;;;;;19.00;68.40;;;;;;5055461;28;19925;-74
2021/07/30 00:03:24;;;;;;;;;;;19.00;68.40;;;;;;5056503;28;19929;-73
2021/07/30 00:05:51;;;;;;;;;;;19.00;68.40;;;;;;5056329;28;19956;-74
2021/07/30 00:08:18;;;;;;;;;;;19.00;68.60;;;;;;5056173;28;19963;-74
2021/07/30 00:10:45;;;;;;;;;;;19.00;68.60;;;;;;5056606;28;19929;-74
2021/07/30 00:13:11;;;;;;;;;;;19.00;68.70;;;;;;5055848;28;19942;-74
2021/07/30 00:15:37;;;;;;;;;;;19.00;68.80;;;;;;5042433;28;20108;-73
2021/07/30 00:18:04;;;;;;;;;;;18.90;68.80;;;;;;5042250;28;19995;-74
2021/07/30 00:20:30;;;;;;;;;;;19.00;68.80;;;;;;5055664;28;20288;-73
2021/07/30 00:22:57;;;;;;;;;;;19.00;69.00;;;;;;5055807;28;19983;-74
2021/07/30 00:25:23;;;;;;;;;;;19.00;69.00;;;;;;5048596;28;19925;-74
2021/07/30 00:27:49;;;;;;;;;;;19.00;69.00;;;;;;5054302;28;19947;-74
2021/07/30 00:30:16;;;;;;;;;;;19.00;69.20;;;;;;5041655;28;19925;-74
2021/07/30 00:32:42;;;;;;;;;;;19.00;69.10;;;;;;5055488;28;19982;-73
2021/07/30 00:35:08;;;;;;;;;;;19.00;69.00;;;;;;5049200;28;20331;-73
2021/07/30 00:37:35;;;;;;;;;;;19.00;69.40;;;;;;5055770;28;19925;-74
2021/07/30 00:40:02;;;;;;;;;;;19.00;69.40;;;;;;5055626;28;20126;-74
2021/07/30 00:42:31;;;;;;;;;;;19.00;69.60;;;;;;5055678;28;19994;-73
2021/07/30 00:45:00;;;;;;;;;;;18.90;69.80;;;;;;5055426;28;19928;-73
2021/07/30 00:47:30;;;;;;;;;;;19.00;69.90;;;;;;5055762;28;19932;-74
2021/07/30 00:49:56;;;;;;;;;;;19.00;70.00;;;;;;5055355;28;19929;-73
2021/07/30 00:52:24;;;;;;;;;;;19.00;70.00;;;;;;5055302;28;20010;-73
2021/07/30 00:54:50;;;;;;;;;;;19.00;70.10;;;;;;5055633;28;19978;-73
2021/07/30 00:57:18;;;;;;;;;;;19.00;70.00;;;;;;5055365;28;19925;-73
2021/07/30 00:59:44;;;;;;;;;;;19.00;70.10;;;;;;5055311;28;20323;-74
2021/07/30 01:02:11;;;;;;;;;;;19.00;70.10;;;;;;5037029;28;19925;-74
2021/07/30 01:04:39;;;;;;;;;;;19.00;70.30;;;;;;5051846;28;19929;-74
2021/07/30 01:07:06;;;;;;;;;;;19.00;70.30;;;;;;5055109;28;19932;-74
2021/07/30 01:09:33;;;;;;;;;;;19.00;70.50;;;;;;5055498;28;19994;-74
2021/07/30 01:12:02;;;;;;;;;;;19.00;70.50;;;;;;5054012;28;19975;-74
2021/07/30 01:14:28;;;;;;;;;;;19.00;70.30;;;;;;5055294;28;20428;-73
2021/07/30 01:16:54;;;;;;;;;;;19.00;70.30;;;;;;5055140;28;19932;-73
2021/07/30 01:19:24;;;;;;;;;;;19.10;70.30;;;;;;5054715;28;19925;-73
2021/07/30 01:21:52;;;;;;;;;;;19.10;70.20;;;;;;5054729;28;19932;-74
2021/07/30 01:24:19;;;;;;;;;;;19.10;70.30;;;;;;5050406;28;19969;-73
2021/07/30 01:26:47;;;;;;;;;;;19.10;70.30;;;;;;5035612;28;20369;-74
2021/07/30 01:29:13;;;;;;;;;;;19.10;70.50;;;;;;5046282;28;19972;-74
2021/07/30 01:31:40;;;;;;;;;;;19.00;70.50;;;;;;5053580;28;19969;-74
2021/07/30 01:34:06;;;;;;;;;;;19.00;70.60;;;;;;5049596;28;20357;-74
2021/07/30 01:36:32;;;;;;;;;;;19.10;70.80;;;;;;5047761;28;19931;-73
2021/07/30 01:38:58;;;;;;;;;;;19.10;72.00;;;;;;5052860;28;19935;-73
2021/07/30 01:41:25;;;;;;;;;;;19.00;71.00;;;;;;5047069;28;19925;-73
2021/07/30 01:43:51;;;;;;;;;;;19.00;71.20;;;;;;5052804;28;19925;-73
2021/07/30 01:46:17;;;;;;;;;;;19.00;71.50;;;;;;5051590;28;19925;-73
2021/07/30 01:48:44;;;;;;;;;;;19.00;71.60;;;;;;5067999;28;19974;-74
2021/07/30 01:51:10;;;;;;;;;;;19.00;71.80;;;;;;5050133;28;19933;-74
2021/07/30 01:53:36;;;;;;;;;;;19.00;71.90;;;;;;5047832;28;19932;-73
2021/07/30 01:56:05;;;;;;;;;;;19.00;71.80;;;;;;5052787;28;19932;-74
2021/07/30 01:58:32;;;;;;;;;;;19.00;72.10;;;;;;5034036;28;20316;-74
2021/07/30 02:00:58;;;;;;;;;;;19.00;71.90;;;;;;5068335;28;20839;-74
2021/07/30 02:03:24;;;;;;;;;;;19.00;72.10;;;;;;5044098;28;19968;-74
2021/07/30 02:05:50;;;;;;;;;;;19.00;72.20;;;;;;5052592;28;19925;-74
2021/07/30 02:08:16;;;;;;;;;;;19.00;72.30;;;;;;5048393;28;19925;-74
2021/07/30 02:10:42;;;;;;;;;;;18.90;72.30;;;;;;5048362;28;19964;-74
2021/07/30 02:15:53;;;;;;;;;;;19.00;72.90;;;;;;5049506;28;20465;-74
2021/07/30 02:18:19;;;;;;;;;;;18.90;73.20;;;;;;5045252;28;19936;-73
2021/07/30 02:20:46;;;;;;;;;;;18.90;73.50;;;;;;5047025;28;19932;-73
2021/07/30 02:23:12;;;;;;;;;;;18.90;73.70;;;;;;5044641;28;20019;-74
2021/07/30 02:25:38;;;;;;;;;;;18.90;74.00;;;;;;5053707;28;20001;-73
2021/07/30 02:28:04;;;;;;;;;;;18.90;74.10;;;;;;5053808;28;20021;-73
2021/07/30 02:30:30;;;;;;;;;;;18.90;74.50;;;;;;5046900;28;19924;-73
2021/07/30 02:32:56;;;;;;;;;;;18.90;74.70;;;;;;5052925;28;20032;-73
2021/07/30 02:35:22;;;;;;;;;;;18.90;74.70;;;;;;5045105;28;20051;-73
2021/07/30 02:37:48;;;;;;;;;;;18.90;75.10;;;;;;5053604;28;20386;-74
2021/07/30 02:40:15;;;;;;;;;;;18.80;75.70;;;;;;5053521;28;20022;-73
2021/07/30 02:42:41;;;;;;;;;;;18.80;76.00;;;;;;5053315;28;19925;-73
2021/07/30 02:45:07;;;;;;;;;;;18.70;76.20;;;;;;5053384;28;19946;-73
2021/07/30 02:47:33;;;;;;;;;;;18.70;76.40;;;;;;5053586;28;19972;-73
2021/07/30 02:49:59;;;;;;;;;;;18.70;76.30;;;;;;5053087;28;19925;-74
2021/07/30 02:52:25;;;;;;;;;;;18.70;76.60;;;;;;5045324;28;19940;-73
2021/07/30 02:54:52;;;;;;;;;;;18.80;77.20;;;;;;5053278;28;19996;-73
2021/07/30 02:57:18;;;;;;;;;;;18.80;77.50;;;;;;5053421;28;19929;-74
2021/07/30 02:59:44;;;;;;;;;;;18.80;78.00;;;;;;5053008;28;20017;-73
2021/07/30 03:02:10;;;;;;;;;;;18.80;78.30;;;;;;5053160;28;20404;-73
2021/07/30 03:04:36;;;;;;;;;;;18.80;78.70;;;;;;5052983;28;19995;-73
2021/07/30 03:07:02;;;;;;;;;;;18.70;79.40;;;;;;5044509;28;19933;-73
2021/07/30 03:09:28;;;;;;;;;;;18.70;79.70;;;;;;5046738;28;20499;-73
2021/07/30 03:11:54;;;;;;;;;;;18.60;80.00;;;;;;5050569;28;19976;-73
2021/07/30 03:14:20;;;;;;;;;;;18.60;80.50;;;;;;5052918;28;19995;-74
2021/07/30 03:16:47;;;;;;;;;;;18.60;80.70;;;;;;5052719;28;20361;-73
2021/07/30 03:19:13;;;;;;;;;;;18.60;80.80;;;;;;5053060;28;19935;-73
2021/07/30 03:21:39;;;;;;;;;;;18.60;81.00;;;;;;5052483;28;20003;-73
2021/07/30 03:24:05;;;;;;;;;;;18.60;81.20;;;;;;5034393;28;19929;-73
2021/07/30 03:26:36;;;;;;;;;;;18.60;81.40;;;;;;5052986;28;20010;-74
2021/07/30 03:29:05;;;;;;;;;;;18.60;81.50;;;;;;5045693;28;19932;-74
2021/07/30 03:31:31;;;;;;;;;;;18.60;81.50;;;;;;5052451;28;19947;-73
2021/07/30 03:33:57;;;;;;;;;;;18.60;81.70;;;;;;5051336;28;20055;-73
2021/07/30 03:36:23;;;;;;;;;;;18.60;82.00;;;;;;5044254;28;19932;-73
2021/07/30 03:38:50;;;;;;;;;;;18.60;82.50;;;;;;5052556;28;19975;-73
2021/07/30 03:41:16;;;;;;;;;;;18.50;82.60;;;;;;5052589;28;19975;-73
2021/07/30 03:43:42;;;;;;;;;;;18.50;82.90;;;;;;5052841;28;20058;-73
2021/07/30 03:46:08;;;;;;;;;;;18.50;83.00;;;;;;5052347;28;20380;-73
2021/07/30 03:48:35;;;;;;;;;;;18.50;83.10;;;;;;5052613;28;19960;-73
2021/07/30 03:51:01;;;;;;;;;;;18.50;81.50;;;;;;5052606;28;19928;-73
2021/07/30 03:53:27;;;;;;;;;;;18.50;80.60;;;;;;5052580;28;20316;-73
2021/07/30 03:55:53;;;;;;;;;;;18.50;80.30;;;;;;5067363;28;19929;-73
2021/07/30 03:58:19;;;;;;;;;;;18.40;80.10;;;;;;5049269;28;19932;-73
2021/07/30 04:00:45;;;;;;;;;;;18.40;79.40;;;;;;5052439;28;19925;-73
2021/07/30 04:03:11;;;;;;;;;;;18.30;77.40;;;;;;5052389;28;19929;-73
2021/07/30 04:05:37;;;;;;;;;;;18.20;75.70;;;;;;5052254;28;19971;-73
2021/07/30 04:08:04;;;;;;;;;;;18.10;74.60;;;;;;5052630;28;19929;-73
2021/07/30 04:10:31;;;;;;;;;;;17.90;74.40;;;;;;5052321;28;20415;-73
2021/07/30 04:12:58;;;;;;;;;;;17.80;74.50;;;;;;5052454;28;19925;-73
2021/07/30 04:15:24;;;;;;;;;;;17.70;74.80;;;;;;5033692;28;19943;-73
2021/07/30 04:17:50;;;;;;;;;;;17.60;75.10;;;;;;5048136;28;19932;-74
2021/07/30 04:20:16;;;;;;;;;;;17.70;75.30;;;;;;5048632;28;20296;-73
2021/07/30 04:22:42;;;;;;;;;;;17.60;75.30;;;;;;5046990;28;19985;-73
2021/07/30 04:25:09;;;;;;;;;;;17.70;75.20;;;;;;5049905;28;19931;-73
2021/07/30 04:27:35;;;;;;;;;;;17.70;75.00;;;;;;5039761;28;19975;-73
2021/07/30 04:30:01;;;;;;;;;;;17.70;75.00;;;;;;5021045;28;19929;-73
2021/07/30 04:32:28;;;;;;;;;;;17.70;74.90;;;;;;5031419;28;19925;-74
2021/07/30 04:34:54;;;;;;;;;;;17.70;74.70;;;;;;5038911;28;19925;-73
2021/07/30 04:37:20;;;;;;;;;;;17.70;74.50;;;;;;5050749;28;19928;-74
2021/07/30 04:39:46;;;;;;;;;;;17.70;74.20;;;;;;5050221;28;20007;-74
2021/07/30 04:42:12;;;;;;;;;;;17.70;73.80;;;;;;5042352;28;20459;-70
2021/07/30 04:44:38;;;;;;;;;;;17.70;73.50;;;;;;5047746;28;20007;-71
2021/07/30 04:47:04;;;;;;;;;;;17.60;73.60;;;;;;5044681;28;20372;-71
2021/07/30 04:49:31;;;;;;;;;;;17.50;73.50;;;;;;5053195;28;19933;-72
2021/07/30 04:51:57;;;;;;;;;;;17.60;73.30;;;;;;5054468;28;19951;-72
2021/07/30 04:54:23;;;;;;;;;;;17.50;73.30;;;;;;5054506;28;20305;-70
2021/07/30 04:56:49;;;;;;;;;;;17.50;73.40;;;;;;5051789;28;19924;-71
2021/07/30 04:59:15;;;;;;;;;;;17.40;73.30;;;;;;5045598;28;19968;-70
2021/07/30 05:01:42;;;;;;;;;;;17.40;73.30;;;;;;5064193;28;19925;-71
2021/07/30 05:04:11;;;;;;;;;;;17.30;73.40;;;;;;5045382;28;19929;-71
2021/07/30 05:06:37;;;;;;;;;;;17.30;73.40;;;;;;5052201;28;19929;-71
2021/07/30 05:09:03;;;;;;;;;;;17.30;73.40;;;;;;5054059;28;20015;-71
2021/07/30 05:11:30;;;;;;;;;;;17.20;73.20;;;;;;5042944;28;19928;-70
2021/07/30 05:13:56;;;;;;;;;;;17.20;73.20;;;;;;5048205;28;19932;-71
2021/07/30 05:16:22;;;;;;;;;;;17.20;73.10;;;;;;5053287;28;20003;-71
2021/07/30 05:18:48;;;;;;;;;;;17.20;73.00;;;;;;5051559;28;20003;-71
2021/07/30 05:21:14;;;;;;;;;;;17.20;73.10;;;;;;5044580;28;20762;-71
2021/07/30 05:23:41;;;;;;;;;;;17.20;73.10;;;;;;5044302;28;19925;-70
2021/07/30 05:26:07;;;;;;;;;;;17.20;72.90;;;;;;5051744;28;19969;-70
2021/07/30 05:28:34;;;;;;;;;;;17.10;72.80;;;;;;5052008;28;19955;-71
2021/07/30 05:31:00;;;;;;;;;;;17.10;72.90;;;;;;5044591;28;19932;-70
2021/07/30 05:33:27;;;;;;;;;;;17.10;73.00;;;;;;5049356;28;19925;-70
2021/07/30 05:35:53;;;;;;;;;;;17.10;73.00;;;;;;5045795;28;19925;-70
2021/07/30 05:38:20;;;;;;;;;;;17.10;73.10;;;;;;5049232;28;20015;-70
2021/07/30 05:40:46;;;;;;;;;;;17.10;73.00;;;;;;5042109;28;20020;-69
2021/07/30 05:43:12;;;;;;;;;;;17.10;73.10;;;;;;5049717;28;20365;-70
2021/07/30 05:45:38;;;;;;;;;;;17.10;73.20;;;;;;5047471;28;20430;-70
2021/07/30 05:48:05;;;;;;;;;;;17.10;73.30;;;;;;5049311;28;20015;-71
2021/07/30 05:50:31;;;;;;;;;;;17.00;73.30;;;;;;5045547;28;20022;-71
2021/07/30 05:52:57;;;;;;;;;;;17.00;73.60;;;;;;5051344;28;19948;-72
2021/07/30 05:55:23;;;;;;;;;;;17.00;73.60;;;;;;5052639;28;19974;-72
2021/07/30 05:57:49;;;;;;;;;;;17.00;74.30;;;;;;5051981;28;20012;-72
2021/07/30 06:00:15;;;;;;;;;;;17.00;73.50;;;;;;5042038;28;20415;-72
2021/07/30 06:02:42;;;;;;;;;;;17.00;73.50;;;;;;5051885;28;20034;-71
2021/07/30 06:05:08;;;;;;;;;;;17.10;73.70;;;;;;5043192;28;20023;-72
2021/07/30 06:07:35;;;;;;;;;;;17.00;73.30;;;;;;5052548;28;19925;-71
2021/07/30 06:10:01;;;;;;;;;;;17.00;73.60;;;;;;5052419;28;19928;-72
2021/07/30 06:12:28;;;;;;;;;;;17.10;73.90;;;;;;5042023;28;19928;-74
2021/07/30 06:14:54;;;;;;;;;;;17.10;73.80;;;;;;5044636;28;20016;-72
2021/07/30 06:17:20;;;;;;;;;;;17.20;73.70;;;;;;5048659;28;20011;-72
2021/07/30 06:19:46;;;;;;;;;;;17.20;73.40;;;;;;5047770;28;19932;-72
2021/07/30 06:22:12;;;;;;;;;;;17.30;73.20;;;;;;5051806;28;20066;-72
2021/07/30 06:24:39;;;;;;;;;;;17.30;72.90;;;;;;5033639;28;19928;-72
2021/07/30 06:27:05;;;;;;;;;;;17.40;72.90;;;;;;5052465;28;19932;-72
2021/07/30 06:29:32;;;;;;;;;;;17.50;72.80;;;;;;5052222;28;19924;-71
2021/07/30 06:31:59;;;;;;;;;;;17.50;72.40;;;;;;5033830;28;19936;-72
2021/07/30 06:34:25;;;;;;;;;;;17.60;71.80;;;;;;5052234;28;19959;-72
2021/07/30 06:36:55;;;;;;;;;;;17.60;71.60;;;;;;5052665;28;20296;-72
2021/07/30 06:39:22;;;;;;;;;;;17.70;71.30;;;;;;5041508;28;20502;-72
2021/07/30 06:41:48;;;;;;;;;;;17.70;71.00;;;;;;5042807;28;19983;-72
2021/07/30 06:44:14;;;;;;;;;;;17.70;70.90;;;;;;5061279;28;19929;-72
2021/07/30 06:46:41;;;;;;;;;;;17.80;70.80;;;;;;5048284;28;19975;-72
2021/07/30 06:49:07;;;;;;;;;;;17.80;70.70;;;;;;5047767;28;19929;-72
2021/07/30 06:51:33;;;;;;;;;;;17.80;70.50;;;;;;5045169;28;20666;-72
2021/07/30 06:54:00;;;;;;;;;;;17.80;70.30;;;;;;5047710;28;19933;-72
2021/07/30 06:56:26;;;;;;;;;;;17.90;70.20;;;;;;5048962;28;20019;-72
2021/07/30 06:58:52;;;;;;;;;;;17.90;69.80;;;;;;5047700;28;19944;-73
2021/07/30 07:01:18;;;;;;;;;;;17.90;69.80;;;;;;5048381;28;19929;-72
2021/07/30 07:03:44;;;;;;;;;;;17.90;69.80;;;;;;5048814;28;19964;-72
2021/07/30 07:06:17;;;;;;;;;;;18.00;69.70;;;;;;5048263;28;20413;-72
2021/07/30 07:08:43;;;;;;;;;;;18.00;69.30;;;;;;5043887;28;19925;-72
2021/07/30 07:11:09;;;;;;;;;;;18.00;69.30;;;;;;5041183;28;20000;-72
2021/07/30 07:13:37;;;;;;;;;;;18.00;69.20;;;;;;5048811;28;19932;-72
2021/07/30 07:16:04;;;;;;;;;;;18.10;69.00;;;;;;5048195;28;20023;-72
2021/07/30 07:18:33;;;;;;;;;;;18.20;68.60;;;;;;5029139;28;19936;-72
2021/07/30 07:20:59;;;;;;;;;;;18.30;68.20;;;;;;5037935;28;19929;-72
2021/07/30 07:23:26;;;;;;;;;;;18.30;68.00;;;;;;5028331;28;20388;-72
2021/07/30 07:25:53;;;;;;;;;;;18.30;68.00;;;;;;5028156;28;20067;-72
2021/07/30 07:28:19;;;;;;;;;;;18.40;67.60;;;;;;5028598;28;20431;-72
2021/07/30 07:30:45;;;;;;;;;;;18.50;67.00;;;;;;5028780;28;19936;-72
2021/07/30 07:33:11;;;;;;;;;;;18.50;66.60;;;;;;5027727;28;20427;-72
2021/07/30 07:35:38;;;;;;;;;;;18.60;66.90;;;;;;5025433;28;20539;-72
2021/07/30 07:38:05;;;;;;;;;;;18.80;66.60;;;;;;5027759;28;19933;-72
2021/07/30 07:40:32;;;;;;;;;;;18.90;66.00;;;;;;5027951;28;19951;-72
2021/07/30 07:42:58;;;;;;;;;;;19.10;65.40;;;;;;5028176;28;19976;-72
2021/07/30 07:45:25;;;;;;;;;;;19.30;64.40;;;;;;5028184;28;20012;-72
2021/07/30 07:47:51;;;;;;;;;;;19.50;63.20;;;;;;5027980;28;20151;-72
2021/07/30 07:50:18;;;;;;;;;;;19.70;62.70;;;;;;5027739;28;20048;-72
2021/07/30 07:52:44;;;;;;;;;;;19.90;62.10;;;;;;5027600;28;20305;-72
2021/07/30 07:55:11;;;;;;;;;;;20.20;61.80;;;;;;5028569;28;19929;-72
2021/07/30 07:57:41;;;;;;;;;;;20.50;61.30;;;;;;5028816;28;19972;-72
2021/07/30 08:00:08;;;;;;;;;;;20.70;60.10;;;;;;5009969;28;19929;-72
2021/07/30 08:02:34;;;;;;;;;;;20.90;59.60;;;;;;5028870;28;19976;-72
2021/07/30 08:05:00;;;;;;;;;;;21.10;59.20;;;;;;5027965;28;20018;-72
2021/07/30 08:07:26;;;;;;;;;;;21.40;59.00;;;;;;5027710;28;19937;-72
2021/07/30 08:09:52;;;;;;;;;;;21.70;58.40;;;;;;5027466;28;19929;-72
2021/07/30 08:12:19;;;;;;;;;;;22.10;57.10;;;;;;5027596;28;20420;-72
2021/07/30 08:14:45;;;;;;;;;;;22.40;56.30;;;;;;5028036;28;20063;-72
2021/07/30 08:17:11;;;;;;;;;;;22.60;54.50;;;;;;5027595;28;19936;-72
2021/07/30 08:19:37;;;;;;;;;;;22.70;53.40;;;;;;5027759;28;19969;-72
2021/07/30 08:22:04;;;;;;;;;;;22.60;53.20;;;;;;5041250;28;19936;-72
2021/07/30 08:24:30;;;;;;;;;;;22.50;53.30;;;;;;5030392;28;20012;-72
2021/07/30 08:26:56;;;;;;;;;;;22.70;53.50;;;;;;5031858;28;20051;-72
2021/07/30 08:29:22;;;;;;;;;;;22.90;52.70;;;;;;5031400;28;20822;-72
2021/07/30 08:31:49;;;;;;;;;;;23.10;52.90;;;;;;5031629;28;19952;-72
2021/07/30 08:34:15;;;;;;;;;;;23.30;52.40;;;;;;5030855;28;20043;-72
2021/07/30 08:36:42;;;;;;;;;;;23.50;51.00;;;;;;5020789;28;20407;-72
2021/07/30 08:39:08;;;;;;;;;;;23.80;50.60;;;;;;5031571;28;19929;-72
2021/07/30 08:41:35;;;;;;;;;;;23.90;50.40;;;;;;5031951;28;19995;-72
2021/07/30 08:44:01;;;;;;;;;;;23.60;49.80;;;;;;5031955;28;20424;-72
2021/07/30 08:46:29;;;;;;;;;;;23.30;50.40;;;;;;5031436;28;20007;-72
2021/07/30 08:48:55;;;;;;;;;;;23.00;50.90;;;;;;5014487;28;19929;-72
2021/07/30 08:51:22;;;;;;;;;;;22.60;51.40;;;;;;5034094;28;19929;-72
2021/07/30 08:53:49;;;;;;;;;;;22.30;52.40;;;;;;5030377;28;20000;-72
2021/07/30 08:56:16;;;;;;;;;;;22.10;53.60;;;;;;5031159;28;19929;-72
2021/07/30 08:58:42;;;;;;;;;;;22.00;54.60;;;;;;5030615;28;20324;-72
2021/07/30 09:01:09;;;;;;;;;;;22.10;53.90;;;;;;5030687;28;19979;-72
2021/07/30 09:03:38;;;;;;;;;;;22.30;54.30;;;;;;5030126;28;19932;-72
2021/07/30 09:06:30;;;;;;;;;;;22.90;53.50;;;;;;5031001;28;19933;-72
2021/07/30 09:09:02;;;;;;;;;;;23.60;51.80;;;;;;5027921;28;20431;-72
2021/07/30 09:11:32;;;;;;;;;;;24.20;49.50;;;;;;5031234;28;19936;-72
2021/07/30 09:14:00;;;;;;;;;;;24.40;47.80;;;;;;5030873;28;20075;-72
2021/07/30 09:16:26;;;;;;;;;;;24.50;47.60;;;;;;5031056;28;20358;-72
2021/07/30 09:18:53;;;;;;;;;;;24.50;47.00;;;;;;5030734;28;20090;-72
2021/07/30 09:21:28;;;;;;;;;;;24.80;46.90;;;;;;5044436;28;19968;-73
2021/07/30 09:23:56;;;;;;;;;;;24.90;46.50;;;;;;5050174;28;19932;-72
2021/07/30 09:26:29;;;;;;;;;;;25.30;46.70;;;;;;5050728;28;20411;-73
2021/07/30 09:28:56;;;;;;;;;;;25.80;45.40;;;;;;5049325;28;19952;-72
2021/07/30 09:31:26;;;;;;;;;;;26.40;45.00;;;;;;5050518;28;19986;-72
2021/07/30 09:33:53;;;;;;;;;;;26.80;43.70;;;;;;5054659;28;19929;-72
2021/07/30 09:36:19;;;;;;;;;;;26.80;43.20;;;;;;5039595;28;19950;-73
2021/07/30 09:38:58;;;;;;;;;;;26.40;42.80;;;;;;5054073;28;19967;-72
2021/07/30 09:41:24;;;;;;;;;;;26.00;44.00;;;;;;5051205;28;20506;-72
2021/07/30 09:43:51;;;;;;;;;;;25.60;45.00;;;;;;5054679;28;19929;-72
2021/07/30 09:46:17;;;;;;;;;;;25.50;45.40;;;;;;5052650;28;20078;-72
2021/07/30 09:48:50;;;;;;;;;;;25.10;45.70;;;;;;5053671;28;19978;-72
2021/07/30 09:51:16;;;;;;;;;;;24.70;46.20;;;;;;5053611;28;19987;-72
2021/07/30 09:53:46;;;;;;;;;;;24.10;47.40;;;;;;5053142;28;19982;-72
2021/07/30 09:56:13;;;;;;;;;;;23.60;48.90;;;;;;5055114;28;19975;-72
2021/07/30 09:58:40;;;;;;;;;;;23.30;50.10;;;;;;5052697;28;20391;-72
2021/07/30 10:01:06;;;;;;;;;;;23.00;50.90;;;;;;5056185;28;20423;-72
2021/07/30 10:03:34;;;;;;;;;;;22.60;51.50;;;;;;5051389;28;19975;-72
2021/07/30 10:06:00;;;;;;;;;;;22.20;52.50;;;;;;5058239;28;19929;-72
2021/07/30 10:08:26;;;;;;;;;;;21.90;53.80;;;;;;5050437;28;19932;-72
2021/07/30 10:10:52;;;;;;;;;;;21.60;54.60;;;;;;5060162;28;19982;-72
2021/07/30 10:13:24;;;;;;;;;;;21.40;55.30;;;;;;5049168;28;19929;-72
2021/07/30 10:15:51;;;;;;;;;;;21.10;56.10;;;;;;5061778;28;19929;-72
2021/07/30 10:18:19;;;;;;;;;;;21.00;57.00;;;;;;5049032;28;20407;-72
2021/07/30 10:20:45;;;;;;;;;;;20.90;57.30;;;;;;5043042;28;19999;-72
2021/07/30 10:23:14;;;;;;;;;;;21.20;57.60;;;;;;5030167;28;19979;-72
2021/07/30 10:25:42;;;;;;;;;;;21.80;55.70;;;;;;5029585;28;19929;-72
2021/07/30 10:28:18;;;;;;;;;;;22.50;54.60;;;;;;5029572;28;19928;-73
2021/07/30 10:30:58;;;;;;;;;;;22.80;51.80;;;;;;5029733;28;20016;-72
2021/07/30 10:33:30;;;;;;;;;;;22.70;51.80;;;;;;5029255;28;20009;-72
2021/07/30 10:35:59;;;;;;;;;;;22.60;52.30;;;;;;5029119;28;20455;-72
2021/07/30 10:38:26;;;;;;;;;;;22.40;52.40;;;;;;5029003;28;19983;-72
2021/07/30 10:40:58;;;;;;;;;;;22.20;52.80;;;;;;5028555;28;19929;-72
2021/07/30 10:43:28;;;;;;;;;;;22.10;53.10;;;;;;5028552;28;19929;-72
2021/07/30 10:46:10;;;;;;;;;;;22.00;53.80;;;;;;5028720;28;20023;-72
2021/07/30 10:48:39;;;;;;;;;;;21.80;53.70;;;;;;5027924;28;19984;-73
2021/07/30 10:51:17;;;;;;;;;;;21.70;54.30;;;;;;5028799;28;19929;-72
2021/07/30 10:53:45;;;;;;;;;;;21.60;54.50;;;;;;5028197;28;20013;-72
2021/07/30 10:56:17;;;;;;;;;;;21.60;54.60;;;;;;5028672;28;19929;-73
2021/07/30 10:58:43;;;;;;;;;;;21.50;54.80;;;;;;5028451;28;19929;-72
2021/07/30 11:01:10;;;;;;;;;;;21.40;55.40;;;;;;5028143;28;19929;-72
2021/07/30 11:03:56;;;;;;;;;;;21.30;55.90;;;;;;5028257;28;20102;-72
2021/07/30 11:06:24;;;;;;;;;;;21.20;56.20;;;;;;5028430;28;19936;-72
2021/07/30 11:11:47;;;;;;;;;;;21.10;55.60;;;;;;5028084;28;19929;-72
2021/07/30 11:14:22;;;;;;;;;;;20.90;55.00;;;;;;5029050;28;20722;-72
2021/07/30 11:16:53;;;;;;;;;;;20.60;55.40;;;;;;5032569;28;20115;-72
2021/07/30 11:19:20;;;;;;;;;;;20.40;56.60;;;;;;5028386;28;19979;-71
2021/07/30 11:21:46;;;;;;;;;;;20.10;58.10;;;;;;5044507;28;19977;-71
2021/07/30 11:24:13;;;;;;;;;;;20.00;59.40;;;;;;5063243;28;19936;-72
2021/07/30 11:26:40;;;;;;;;;;;19.90;60.80;;;;;;5048485;28;19933;-72
2021/07/30 11:29:08;;;;;;;;;;;19.80;61.40;;;;;;5048032;28;19929;-72
2021/07/30 11:31:37;;;;;;;;;;;19.90;62.10;;;;;;5048400;28;19928;-71
2021/07/30 11:34:09;;;;;;;;;;;20.10;62.20;;;;;;5047771;28;20362;-72
2021/07/30 11:36:35;;;;;;;;;;;20.20;62.00;;;;;;5048705;28;20015;-72
2021/07/30 11:39:01;;;;;;;;;;;20.40;61.40;;;;;;5048245;28;20591;-72
2021/07/30 11:41:27;;;;;;;;;;;20.70;60.80;;;;;;5048325;28;20710;-72
2021/07/30 11:44:04;;;;;;;;;;;20.90;58.70;;;;;;5047474;28;20031;-72
2021/07/30 11:46:31;;;;;;;;;;;21.10;56.90;;;;;;5047214;28;20015;-72
2021/07/30 11:48:58;;;;;;;;;;;21.30;56.10;;;;;;5047984;28;19954;-72
2021/07/30 11:51:25;;;;;;;;;;;21.40;54.80;;;;;;5047607;28;19964;-69
2021/07/30 11:53:52;;;;;;;;;;;21.50;53.90;;;;;;5047674;28;19936;-71
2021/07/30 11:56:18;;;;;;;;;;;21.60;53.70;;;;;;5049851;28;19983;-73
2021/07/30 11:58:54;;;;;;;;;;;21.70;53.80;;;;;;5033430;28;20297;-73
2021/07/30 12:01:20;;;;;;;;;;;21.70;54.20;;;;;;5050188;28;19975;-72
2021/07/30 12:04:03;;;;;;;;;;;21.90;54.30;;;;;;5051144;28;20311;-73
2021/07/30 12:06:30;;;;;;;;;;;22.00;54.10;;;;;;5047283;28;19987;-73
2021/07/30 12:08:57;;;;;;;;;;;22.10;53.60;;;;;;5052308;28;20402;-73
2021/07/30 12:11:24;;;;;;;;;;;22.20;54.00;;;;;;5051540;28;20054;-73
2021/07/30 12:13:51;;;;;;;;;;;22.30;53.50;;;;;;5051543;28;20110;-73
2021/07/30 12:16:17;;;;;;;;;;;22.40;53.30;;;;;;5052392;28;20055;-73
2021/07/30 12:18:44;;;;;;;;;;;22.40;53.20;;;;;;5051697;28;19933;-73
2021/07/30 12:21:10;;;;;;;;;;;22.50;53.10;;;;;;5041304;28;19928;-73
2021/07/30 12:23:36;;;;;;;;;;;22.50;53.70;;;;;;5032006;28;20428;-73
2021/07/30 12:26:03;;;;;;;;;;;22.50;53.70;;;;;;5031925;28;20388;-72
2021/07/30 12:28:41;;;;;;;;;;;22.60;53.60;;;;;;5031610;28;19929;-73
2021/07/30 12:31:11;;;;;;;;;;;22.50;53.20;;;;;;5031837;28;19929;-71
2021/07/30 12:33:37;;;;;;;;;;;22.50;53.30;;;;;;5031569;28;20016;-73
2021/07/30 12:36:11;;;;;;;;;;;22.50;52.70;;;;;;5031566;28;20015;-73
2021/07/30 12:38:53;;;;;;;;;;;22.40;51.40;;;;;;5031761;28;20475;-73
2021/07/30 12:41:21;;;;;;;;;;;22.40;51.40;;;;;;5031761;28;19986;-73
2021/07/30 12:43:47;;;;;;;;;;;22.30;51.40;;;;;;5031492;28;19929;-73
2021/07/30 12:46:31;;;;;;;;;;;22.20;51.80;;;;;;5031818;28;19936;-73
2021/07/30 12:48:58;;;;;;;;;;;22.10;52.00;;;;;;5031671;28;20320;-73
2021/07/30 12:51:27;;;;;;;;;;;22.00;52.50;;;;;;5031803;28;19929;-73
2021/07/30 12:53:59;;;;;;;;;;;21.90;52.60;;;;;;5031516;28;19961;-73
2021/07/30 12:56:25;;;;;;;;;;;21.90;52.80;;;;;;5031202;28;20082;-73
2021/07/30 12:58:52;;;;;;;;;;;21.90;52.90;;;;;;5031285;28;19929;-73
2021/07/30 13:01:19;;;;;;;;;;;21.90;52.30;;;;;;5031493;28;19996;-73
2021/07/30 13:03:45;;;;;;;;;;;21.80;52.40;;;;;;5031127;28;19929;-73
2021/07/30 13:06:18;;;;;;;;;;;21.80;52.50;;;;;;5031001;28;19925;-73
2021/07/30 13:08:46;;;;;;;;;;;21.70;52.80;;;;;;5021916;28;19936;-73
2021/07/30 13:11:13;;;;;;;;;;;21.70;53.10;;;;;;5031023;28;20008;-73
2021/07/30 13:13:40;;;;;;;;;;;21.80;53.50;;;;;;5030708;28;20689;-73
2021/07/30 13:16:06;;;;;;;;;;;21.80;53.00;;;;;;5031432;28;19933;-73
2021/07/30 13:18:32;;;;;;;;;;;21.90;52.60;;;;;;5030813;28;20444;-73
2021/07/30 13:20:59;;;;;;;;;;;21.90;52.10;;;;;;5041944;28;19974;-73
2021/07/30 13:23:25;;;;;;;;;;;22.00;51.70;;;;;;5042229;28;20055;-73
2021/07/30 13:25:51;;;;;;;;;;;22.00;51.70;;;;;;5026778;28;20336;-73
2021/07/30 13:28:18;;;;;;;;;;;22.00;51.60;;;;;;5037198;28;19994;-73
2021/07/30 13:30:45;;;;;;;;;;;22.10;52.20;;;;;;5036064;28;19926;-73
2021/07/30 13:33:11;;;;;;;;;;;22.00;51.60;;;;;;5035678;28;20008;-73
2021/07/30 13:35:38;;;;;;;;;;;22.10;51.30;;;;;;5043770;28;19951;-73
2021/07/30 13:38:05;;;;;;;;;;;22.10;49.80;;;;;;5034629;28;20266;-73
2021/07/30 13:40:32;;;;;;;;;;;22.20;50.20;;;;;;5041429;28;19983;-73
2021/07/30 13:43:07;;;;;;;;;;;22.20;50.90;;;;;;5040694;28;20035;-73
2021/07/30 13:45:34;;;;;;;;;;;22.20;50.50;;;;;;5055110;28;19933;-73
2021/07/30 13:48:00;;;;;;;;;;;22.20;50.40;;;;;;5040810;28;19932;-73
2021/07/30 13:50:27;;;;;;;;;;;22.20;50.70;;;;;;5038623;28;20016;-73
2021/07/30 13:52:53;;;;;;;;;;;22.20;51.20;;;;;;5024925;28;20277;-73
2021/07/30 13:55:19;;;;;;;;;;;22.30;51.50;;;;;;5038446;28;19995;-73
2021/07/30 13:57:45;;;;;;;;;;;22.30;50.70;;;;;;5042305;28;19925;-73
2021/07/30 14:00:11;;;;;;;;;;;22.40;50.20;;;;;;5038884;28;20368;-73
2021/07/30 14:02:37;;;;;;;;;;;22.40;49.90;;;;;;5040780;28;19925;-73
2021/07/30 14:05:04;;;;;;;;;;;22.40;50.40;;;;;;5040628;28;19925;-73
2021/07/30 14:07:30;;;;;;;;;;;22.50;50.60;;;;;;5039298;28;20019;-73
2021/07/30 14:09:56;;;;;;;;;;;22.60;50.70;;;;;;5042429;28;19926;-73
2021/07/30 14:12:22;;;;;;;;;;;22.50;50.50;;;;;;5038763;28;19932;-73
2021/07/30 14:14:48;;;;;;;;;;;22.50;50.50;;;;;;5043181;28;19999;-73
2021/07/30 14:17:15;;;;;;;;;;;22.50;50.60;;;;;;5034307;28;20399;-73
2021/07/30 14:19:41;;;;;;;;;;;22.50;51.00;;;;;;5050047;28;19931;-73
2021/07/30 14:22:08;;;;;;;;;;;22.60;50.60;;;;;;5047199;28;19932;-73